Cupertino, CA

5:58 PM PDT on September 20, 2014 (GMT -0700)
Monta Vista, Cupertino, CA | Change Station
CLOSE
Current Station
Personal Weather Station
Location: Cupertino, CA
Elevation: 377 ft
Nearby Weather Stations

Elev 377 ft 37.32 °N, 122.07 °W | Updated 13 minutes ago

Partly Cloudy
Partly Cloudy
72.9 °F
Feels Like 76 °F
N
2.5
Wind Variable Wind from North
Gusts 4.0 mph

Today
High -- | Low -- °F
--% Chance of Precip.
Yesterday
High -- | Low -- °F
Precip. -- in
6:54 AM 7:08 PM
Waning Crescent, 9% visible
Pressure 29.90 in
Visibility 10.0 miles
Clouds Clear
Heat Index 76 °F
Dew Point 61 °F
Humidity 66%
Rainfall 0.00 in
Snow Depth 0 in , 0 in , 0 in
UV 2 out of 12
Pollen 4.00 out of 12
PM2.5 Good
Flu Activity Not available.
METAR KNUQ 202356Z 35014KT 10SM CLR 22/16 A2989 RMK AO2 SLP124 T02170161 10250 20211 55006

More Conditions Fewer Conditions

Pressure 29.90 in
Visibility 10.0 miles
Clouds Clear
Heat Index 76 °F
Dew Point 61 °F
Humidity 66%
Rainfall 0.00 in
Snow Depth 0 in , 0 in , 0 in
UV 2 out of 12
Pollen 4.00 out of 12
PM2.5 Good
Flu Activity Not available.
METAR KNUQ 202356Z 35014KT 10SM CLR 22/16 A2989 RMK AO2 SLP124 T02170161 10250 20211 55006

More Conditions Fewer Conditions

10-Day Weather Forecast

Almanac

Astronomy

Sep. 20, 2014 Rise Set
Actual Time 6:54 AM PDT 7:08 PM PDT
Civil Twilight 6:28 AM PDT 7:34 PM PDT
Nautical Twilight 5:57 AM PDT 8:04 PM PDT
Astronomical Twilight 5:26 AM PDT 8:35 PM PDT
Moon 3:41 AM PDT (9/20) 5:11 PM PDT (9/20)
Length of Visible Light 13h 05m
Length of Day
12h 13m
Tomorrow will be 2m 23s shorter.
Waning Crescent, 9% of the Moon is Illuminated
Today
Waning Crescent
Sep 24
New
Oct 1
First Quarter
Oct 8
Full
Oct 15
Last Quarter

Today's Extremes

State Highs State Lows

Community

WunderPhotos

Upload Photos

1,755,000 photos uploaded!

WunderBlogs® & News

Nearby

Air Quality

  Air Quality AQ Index Pollutant
Yesterday Good
OZONE
Yesterday Good
PM2.5
Current Good
PM2.5
Saturday Moderate
PM2.5
Sunday Good
PM2.5
Monday Good
OZONE
Tuesday Good
OZONE
Wednesday Good
OZONE
Thursday Good
OZONE

Snow Depth

Station Depth Elevation
Adin Mountain 0 in 6200 ft
Spratt Creek 0 in 6200 ft
CSS Lab 0 in 6900 ft
Summit Meadow 0 in 9122 ft
Monitor Pass 0 in 8350 ft

Earthquake Activity

City Distance Mag. Time & Date
Livermore, California 31 miles 2.6 3:37 AM PDT
2014-09-19
The Geysers, California 106 miles 2.5 11:29 PM PDT
2014-09-17
Minimum magnitude displayed is 2.5.

Coastal Water Temperatures

Place Temperature
No Stations Reporting

Nearby Weather Stations